Morristown, NJ

4:47 PM EDT on May 27, 2015 (GMT -0400)
Wheatsheaf | | Change Station
CLOSE
Current Station
Personal Weather Station
Location: Morristown Township, NJ
Elevation: 406 ft
Nearby Weather Stations

Elev 406 ft 40.81 °N, 74.50 °W | Updated 44 seconds ago

Partly Cloudy
Partly Cloudy
85.0 °F
Feels Like 91 °F
N
0.0
Wind Variable Wind from ENE
Gusts 1.0 mph

Today
High -- | Low -- °F
--% Chance of Precip.
Yesterday
High -- | Low -- °F
Precip. -- in
5:31 AM 8:19 PM
Waxing Gibbous, 70% visible
Pressure 30.08 in
Visibility 10.0 miles
Clouds Scattered Clouds 4400 ft
Scattered Clouds 5000 ft
Scattered Clouds 11000 ft
Heat Index 91 °F
Dew Point 71 °F
Humidity 64%
Rainfall 0.00 in
Snow Depth Not available.
UV 6 out of 12
Pollen 4.90 out of 12
Air Quality Not available.
Flu Activity Sporadic
METAR KMMU 271945Z 23009G16KT 10SM SCT044 SCT050 SCT110 31/20 A3008

More Conditions Fewer Conditions

Pressure 30.08 in
Visibility 10.0 miles
Clouds Scattered Clouds 4400 ft
Scattered Clouds 5000 ft
Scattered Clouds 11000 ft
Heat Index 91 °F
Dew Point 71 °F
Humidity 64%
Rainfall 0.00 in
Snow Depth Not available.
UV 6 out of 12
Pollen 4.90 out of 12
Air Quality Not available.
Flu Activity Sporadic
METAR KMMU 271945Z 23009G16KT 10SM SCT044 SCT050 SCT110 31/20 A3008

More Conditions Fewer Conditions

10-Day Weather Forecast

Almanac

Astronomy

May. 27, 2015 Rise Set
Actual Time
Civil Twilight
Nautical Twilight
Astronomical Twilight
Moon
Length of Visible Light
Length of Day
Tomorrow will be .
, % of the Moon is Illuminated

Today's Extremes

State Highs State Lows

Community

WunderPhotos

Upload Photos

1,824,782 photos uploaded!

WunderBlogs® & News

Nearby

Air Quality

  Air Quality AQ Index Pollutant
Not available.

Snow Depth

Station Depth Elevation

Earthquake Activity

City Distance Mag. Time & Date
Minimum magnitude displayed is 2.5.

Coastal Water Temperatures

Place Temperature

Stations

Nearby Weather Stations

Station Location Temp. Windchill Dew Point Humidity Wind Precip. Elev Updated Type
                   
Severe Thunderstorm Watch
Statement as of 4:43 PM EDT on May 27, 2015

Severe Thunderstorm Watch 227 remains in effect until 700 PM EDT

NJ
. New Jersey counties included are

Atlantic Bergen Burlington
Camden Cape May Cumberland
Essex Gloucester Hudson
Hunterdon Mercer Middlesex
Monmouth Morris ocean
Passaic Salem Somerset
Sussex eastern Union Warren